createdAt,value
2022-10-08T00:02:17.541Z,99908.86
2022-10-08T00:05:19.338Z,99904.52
2022-10-08T00:08:21.471Z,99902.55
2022-10-08T00:11:31.789Z,99893.48
2022-10-08T00:14:33.903Z,99892.36
2022-10-08T00:17:35.659Z,99893.39
2022-10-08T00:20:37.658Z,99889.45
2022-10-08T00:23:39.332Z,99885.48
2022-10-08T00:26:44.072Z,99882.13
2022-10-08T00:29:47.193Z,99874.14
2022-10-08T00:32:49.609Z,99879.23
2022-10-08T00:35:51.874Z,99877.96
2022-10-08T00:38:57.817Z,99871.05
2022-10-08T00:42:00.335Z,99869.63
2022-10-08T00:45:02.187Z,99866.11
2022-10-08T00:48:04.368Z,99861.05
2022-10-08T00:51:06.229Z,99858.34
2022-10-08T00:54:08.206Z,99855.59
2022-10-08T00:57:10.151Z,99850.06
2022-10-08T01:00:20.647Z,99847.75
2022-10-08T01:03:23.162Z,99843.21
2022-10-08T01:06:29.986Z,99847.70
2022-10-08T01:09:49.337Z,99847.36
2022-10-08T01:13:16.930Z,99838.86
2022-10-08T01:16:27.585Z,99839.95
2022-10-08T01:19:48.984Z,99843.06
2022-10-08T01:23:15.354Z,99837.77
2022-10-08T01:26:46.063Z,99835.45
2022-10-08T01:29:49.202Z,99832.73
2022-10-08T01:32:57.686Z,99834.26
2022-10-08T01:36:01.268Z,99831.45
2022-10-08T01:39:07.928Z,99826.78
2022-10-08T01:42:10.539Z,99832.30
2022-10-08T01:45:19.134Z,99831.77
2022-10-08T01:48:23.939Z,99827.33
2022-10-08T01:51:32.574Z,99830.39
2022-10-08T01:54:35.473Z,99824.33
2022-10-08T01:57:38.480Z,99825.38
2022-10-08T02:00:42.256Z,99822.59
2022-10-08T02:04:04.053Z,99820.58
2022-10-08T02:07:15.046Z,99819.13
2022-10-08T02:10:19.968Z,99817.30
2022-10-08T02:13:21.850Z,99812.08
2022-10-08T02:16:29.229Z,99806.45
2022-10-08T02:19:57.371Z,99810.48
2022-10-08T02:23:14.343Z,99807.55
2022-10-08T02:26:27.113Z,99805.09
2022-10-08T02:29:36.045Z,99803.86
2022-10-08T02:32:55.717Z,99799.11
2022-10-08T02:35:59.866Z,99804.64
2022-10-08T02:39:06.615Z,99804.10
2022-10-08T02:42:11.569Z,99804.35
2022-10-08T02:45:24.231Z,99799.31
2022-10-08T02:48:32.112Z,99806.20
2022-10-08T02:51:39.770Z,99805.11
2022-10-08T02:54:43.506Z,99802.48
2022-10-08T02:57:52.068Z,99802.01
2022-10-08T03:00:59.717Z,99804.91
2022-10-08T03:04:26.607Z,99802.36
2022-10-08T03:07:32.220Z,99803.82
2022-10-08T03:10:36.222Z,99805.77
2022-10-08T03:13:41.037Z,99806.00
2022-10-08T03:16:45.208Z,99805.52
2022-10-08T03:19:47.222Z,99805.80
2022-10-08T03:22:49.353Z,99801.20
2022-10-08T03:25:51.422Z,99801.75
2022-10-08T03:28:53.953Z,99801.02
2022-10-08T03:31:55.743Z,99801.80
2022-10-08T03:34:57.724Z,99802.34
2022-10-08T03:37:59.632Z,99800.66
2022-10-08T03:41:01.837Z,99804.98
2022-10-08T03:44:03.780Z,99805.76
2022-10-08T03:47:05.614Z,99803.33
2022-10-08T03:50:07.865Z,99804.32
2022-10-08T03:53:09.886Z,99804.94
2022-10-08T03:56:14.891Z,99803.07
2022-10-08T03:59:16.626Z,99802.39
2022-10-08T04:02:18.455Z,99795.93
2022-10-08T04:05:20.611Z,99801.64
2022-10-08T04:08:22.895Z,99797.77
2022-10-08T04:11:24.611Z,99794.80
2022-10-08T04:14:26.410Z,99797.13
2022-10-08T04:17:28.201Z,99791.96
2022-10-08T04:20:29.971Z,99794.75
2022-10-08T04:23:33.663Z,99797.26
2022-10-08T04:26:35.582Z,99797.04
2022-10-08T04:29:37.283Z,99796.03
2022-10-08T04:32:38.971Z,99797.24
2022-10-08T04:35:40.673Z,99798.04
2022-10-08T04:38:43.779Z,99797.48
2022-10-08T04:41:45.698Z,99795.39
2022-10-08T04:44:47.596Z,99794.36
2022-10-08T04:47:49.354Z,99797.75
2022-10-08T04:51:01.435Z,99799.98
2022-10-08T04:54:03.350Z,99800.90
2022-10-08T04:57:05.100Z,99795.10
2022-10-08T05:00:18.522Z,99794.21
2022-10-08T05:03:21.004Z,99790.75
2022-10-08T05:06:23.920Z,99796.64
2022-10-08T05:09:25.654Z,99793.38
2022-10-08T05:12:27.361Z,99793.48
2022-10-08T05:15:29.486Z,99800.90
2022-10-08T05:18:32.757Z,99798.06
2022-10-08T05:21:34.439Z,99800.00
2022-10-08T05:24:36.675Z,99799.75
2022-10-08T05:27:38.398Z,99801.09
2022-10-08T05:30:40.097Z,99799.65
2022-10-08T05:33:41.772Z,99796.21
2022-10-08T05:36:43.500Z,99807.29
2022-10-08T05:39:45.837Z,99811.28
2022-10-08T05:42:47.864Z,99808.02
2022-10-08T05:45:51.530Z,99811.48
2022-10-08T05:48:54.667Z,99811.36
2022-10-08T05:51:56.409Z,99809.23
2022-10-08T05:54:58.185Z,99814.30
2022-10-08T05:58:00.085Z,99816.05
2022-10-08T06:01:04.479Z,99822.50
2022-10-08T06:04:08.733Z,99818.42
2022-10-08T06:07:10.925Z,99823.80
2022-10-08T06:10:13.210Z,99821.80
2022-10-08T06:13:15.014Z,99823.35
2022-10-08T06:16:16.871Z,99823.17
2022-10-08T06:19:18.677Z,99822.41
2022-10-08T06:22:20.677Z,99827.00
2022-10-08T06:25:22.447Z,99824.73
2022-10-08T06:28:24.341Z,99823.48
2022-10-08T06:31:26.183Z,99825.31
2022-10-08T06:34:27.992Z,99828.80
2022-10-08T06:37:29.694Z,99830.16
2022-10-08T06:40:38.994Z,99828.80
2022-10-08T06:43:40.989Z,99831.08
2022-10-08T06:46:43.395Z,99829.64
2022-10-08T06:49:45.358Z,99832.47
2022-10-08T06:52:47.475Z,99832.92
2022-10-08T06:55:49.465Z,99833.63
2022-10-08T06:58:52.004Z,99836.69
2022-10-08T07:01:54.004Z,99836.16
2022-10-08T07:04:55.733Z,99833.08
2022-10-08T07:07:57.422Z,99829.00
2022-10-08T07:11:12.234Z,99825.40
2022-10-08T07:14:14.055Z,99830.61
2022-10-08T07:17:16.017Z,99837.10
2022-10-08T07:20:18.429Z,99837.86
2022-10-08T07:23:20.184Z,99842.34
2022-10-08T07:26:24.746Z,99836.09
2022-10-08T07:29:26.669Z,99838.60
2022-10-08T07:32:28.661Z,99832.18
2022-10-08T07:35:30.508Z,99829.52
2022-10-08T07:38:32.287Z,99821.58
2022-10-08T07:41:35.258Z,99817.36
2022-10-08T07:44:37.419Z,99810.92
2022-10-08T07:47:39.151Z,99809.19
2022-10-08T07:50:40.906Z,99804.69
2022-10-08T07:53:43.733Z,99809.64
2022-10-08T07:56:46.068Z,99809.36
2022-10-08T07:59:47.831Z,99812.61
2022-10-08T08:02:49.673Z,99803.64
2022-10-08T08:05:54.823Z,99805.67
2022-10-08T08:08:56.973Z,99800.44
2022-10-08T08:11:58.667Z,99799.98
2022-10-08T08:15:00.390Z,99798.45
2022-10-08T08:18:02.819Z,99796.33
2022-10-08T08:21:07.793Z,99797.83
2022-10-08T08:24:13.751Z,99791.44
2022-10-08T08:27:15.643Z,99785.73
2022-10-08T08:30:17.480Z,99786.23
2022-10-08T08:33:19.168Z,99787.58
2022-10-08T08:36:25.107Z,99781.55
2022-10-08T08:39:28.167Z,99772.75
2022-10-08T08:42:49.129Z,99771.88
2022-10-08T08:45:51.303Z,99771.20
2022-10-08T08:48:55.796Z,99766.41
2022-10-08T08:51:59.257Z,99764.13
2022-10-08T08:55:01.820Z,99765.15
2022-10-08T08:58:12.475Z,99763.37
2022-10-08T09:01:42.549Z,99761.01
2022-10-08T09:04:48.041Z,99761.15
2022-10-08T09:07:54.393Z,99763.48
2022-10-08T09:11:04.099Z,99763.65
2022-10-08T09:14:37.990Z,99761.09
2022-10-08T09:17:41.539Z,99755.17
2022-10-08T09:20:44.558Z,99744.66
2022-10-08T09:23:46.910Z,99740.92
2022-10-08T09:26:48.859Z,99743.94
2022-10-08T09:29:50.692Z,99738.79
2022-10-08T09:32:53.631Z,99742.02
2022-10-08T09:35:55.686Z,99744.52
2022-10-08T09:38:58.843Z,99744.67
2022-10-08T09:42:20.197Z,99735.73
2022-10-08T09:45:42.950Z,99731.27
2022-10-08T09:48:46.019Z,99729.51
2022-10-08T09:51:49.406Z,99719.13
2022-10-08T09:55:02.744Z,99716.52
2022-10-08T09:58:05.560Z,99718.81
2022-10-08T10:01:14.417Z,99715.58
2022-10-08T10:04:37.466Z,99712.65
2022-10-08T10:07:44.913Z,99712.81
2022-10-08T10:10:46.947Z,99711.33
2022-10-08T10:13:50.178Z,99706.36
2022-10-08T10:16:56.749Z,99704.07
2022-10-08T10:20:20.442Z,99699.02
2022-10-08T10:23:27.879Z,99698.31
2022-10-08T10:26:34.020Z,99695.63
2022-10-08T10:30:07.664Z,99692.77
2022-10-08T10:33:15.849Z,99685.79
2022-10-08T10:36:18.652Z,99686.11
2022-10-08T10:39:38.822Z,99678.17
2022-10-08T10:43:06.749Z,99674.04
2022-10-08T10:46:32.740Z,99669.95
2022-10-08T10:49:38.465Z,99661.75
2022-10-08T10:53:23.933Z,99654.91
2022-10-08T10:56:29.179Z,99646.86
2022-10-08T10:59:49.067Z,99643.19
2022-10-08T11:03:08.264Z,99639.39
2022-10-08T11:06:24.127Z,99634.34
2022-10-08T11:09:36.451Z,99623.72
2022-10-08T11:12:56.881Z,99625.14
2022-10-08T11:16:06.601Z,99617.95
2022-10-08T11:19:33.407Z,99616.98
2022-10-08T11:23:03.451Z,99614.63
2022-10-08T11:26:25.674Z,99611.98
2022-10-08T11:30:05.218Z,99610.05
2022-10-08T11:33:12.686Z,99608.02
2022-10-08T11:36:34.883Z,99607.16
2022-10-08T11:39:55.855Z,99607.54
2022-10-08T11:43:08.053Z,99606.83
2022-10-08T11:46:31.531Z,99602.94
2022-10-08T11:49:33.454Z,99598.80
2022-10-08T11:52:35.745Z,99593.42
2022-10-08T11:55:38.084Z,99589.27
2022-10-08T11:58:39.791Z,99587.67
2022-10-08T12:01:56.795Z,99587.20
2022-10-08T12:05:23.660Z,99584.88
2022-10-08T12:08:58.163Z,99581.71
2022-10-08T12:12:12.883Z,99583.14
2022-10-08T12:15:23.998Z,99583.52
2022-10-08T12:18:26.454Z,99581.48
2022-10-08T12:21:28.486Z,99577.20
2022-10-08T12:24:39.549Z,99579.84
2022-10-08T12:27:41.360Z,99580.25
2022-10-08T12:30:55.031Z,99578.94
2022-10-08T12:34:02.710Z,99572.37
2022-10-08T12:37:20.188Z,99569.73
2022-10-08T12:40:58.446Z,99568.92
2022-10-08T12:44:06.660Z,99562.80
2022-10-08T12:47:30.056Z,99562.41
2022-10-08T12:50:49.692Z,99567.64
2022-10-08T12:53:52.211Z,99562.64
2022-10-08T12:56:53.984Z,99557.75
2022-10-08T13:00:00.941Z,99553.88
2022-10-08T13:03:11.670Z,99555.11
2022-10-08T13:06:29.325Z,99555.45
2022-10-08T13:09:36.386Z,99554.54
2022-10-08T13:12:39.592Z,99551.63
2022-10-08T13:15:42.163Z,99551.80
2022-10-08T13:18:58.674Z,99546.84
2022-10-08T13:22:08.816Z,99546.21
2022-10-08T13:25:39.167Z,99544.58
2022-10-08T13:28:59.329Z,99538.81
2022-10-08T13:32:05.239Z,99537.32
2022-10-08T13:35:20.806Z,99532.39
2022-10-08T13:38:29.538Z,99533.36
2022-10-08T13:41:31.256Z,99536.48
2022-10-08T13:44:33.788Z,99530.33
2022-10-08T13:47:35.519Z,99531.48
2022-10-08T13:50:44.562Z,99528.63
2022-10-08T13:53:46.390Z,99532.83
2022-10-08T13:56:49.045Z,99530.82
2022-10-08T13:59:51.240Z,99526.80
2022-10-08T14:02:53.457Z,99524.66
2022-10-08T14:05:55.579Z,99519.75
2022-10-08T14:08:58.214Z,99521.70
2022-10-08T14:12:02.023Z,99516.67
2022-10-08T14:15:04.163Z,99514.80
2022-10-08T14:18:06.377Z,99514.07
2022-10-08T14:21:10.538Z,99509.77
2022-10-08T14:24:12.535Z,99506.08
2022-10-08T14:27:14.357Z,99504.17
2022-10-08T14:30:16.373Z,99507.52
2022-10-08T14:33:18.055Z,99506.38
2022-10-08T14:36:22.190Z,99506.76
2022-10-08T14:39:25.202Z,99502.30
2022-10-08T14:42:26.880Z,99504.98
2022-10-08T14:45:28.675Z,99503.41
2022-10-08T14:48:30.491Z,99503.27
2022-10-08T14:51:38.451Z,99508.38
2022-10-08T14:54:40.215Z,99510.81
2022-10-08T14:57:42.111Z,99512.21
2022-10-08T15:00:44.015Z,99510.09
2022-10-08T15:03:46.060Z,99510.28
2022-10-08T15:06:48.301Z,99517.13
2022-10-08T15:09:50.016Z,99516.73
2022-10-08T15:12:51.809Z,99518.14
2022-10-08T15:15:53.643Z,99522.70
2022-10-08T15:18:55.347Z,99529.14
2022-10-08T15:21:57.226Z,99529.17
2022-10-08T15:24:59.011Z,99530.23
2022-10-08T15:28:01.015Z,99533.30
2022-10-08T15:31:09.146Z,99539.44
2022-10-08T15:34:17.477Z,99542.83
2022-10-08T15:37:19.315Z,99543.31
2022-10-08T15:40:21.119Z,99546.51
2022-10-08T15:43:32.278Z,99554.10
2022-10-08T15:46:34.037Z,99559.55
2022-10-08T15:49:37.109Z,99563.30
2022-10-08T15:52:42.925Z,99564.55
2022-10-08T15:55:57.521Z,99570.06
2022-10-08T15:59:00.190Z,99574.70
2022-10-08T16:02:02.571Z,99573.83
2022-10-08T16:05:04.839Z,99569.83
2022-10-08T16:08:09.454Z,99574.04
2022-10-08T16:11:20.324Z,99574.83
2022-10-08T16:14:24.476Z,99573.89
2022-10-08T16:17:27.164Z,99580.06
2022-10-08T16:20:29.004Z,99582.66
2022-10-08T16:23:35.804Z,99586.29
2022-10-08T16:26:40.074Z,99587.30
2022-10-08T16:29:41.948Z,99591.89
2022-10-08T16:32:43.598Z,99592.98
2022-10-08T16:35:45.335Z,99597.30
2022-10-08T16:38:47.281Z,99604.60
2022-10-08T16:41:49.389Z,99605.35
2022-10-08T16:44:51.146Z,99607.38
2022-10-08T16:47:52.914Z,99607.98
2022-10-08T16:50:55.015Z,99607.08
2022-10-08T16:53:59.242Z,99610.31
2022-10-08T16:57:01.816Z,99615.70
2022-10-08T17:00:04.675Z,99623.64
2022-10-08T17:03:08.086Z,99626.94
2022-10-08T17:06:10.852Z,99629.16
2022-10-08T17:09:13.205Z,99626.27
2022-10-08T17:12:17.473Z,99627.02
2022-10-08T17:15:22.837Z,99627.49
2022-10-08T17:18:28.886Z,99628.76
2022-10-08T17:21:32.298Z,99626.66
2022-10-08T17:24:39.030Z,99627.45
2022-10-08T17:27:43.974Z,99632.36
2022-10-08T17:30:45.670Z,99639.68
2022-10-08T17:33:47.565Z,99642.34
2022-10-08T17:36:49.390Z,99644.90
2022-10-08T17:39:51.215Z,99645.91
2022-10-08T17:42:53.523Z,99648.09
2022-10-08T17:45:55.337Z,99648.15
2022-10-08T17:48:57.806Z,99654.41
2022-10-08T17:51:59.545Z,99662.06
2022-10-08T17:55:01.418Z,99664.83
2022-10-08T17:58:03.226Z,99663.70
2022-10-08T18:01:09.119Z,99662.38
2022-10-08T18:04:12.974Z,99662.45
2022-10-08T18:07:15.010Z,99660.04
2022-10-08T18:10:16.755Z,99661.69
2022-10-08T18:13:18.971Z,99662.48
2022-10-08T18:16:21.887Z,99665.44
2022-10-08T18:19:24.007Z,99664.04
2022-10-08T18:22:26.124Z,99671.10
2022-10-08T18:25:27.971Z,99676.23
2022-10-08T18:28:29.857Z,99681.70
2022-10-08T18:31:32.885Z,99682.39
2022-10-08T18:34:34.708Z,99682.14
2022-10-08T18:37:36.421Z,99679.05
2022-10-08T18:40:38.320Z,99678.52
2022-10-08T18:43:40.359Z,99682.13
2022-10-08T18:46:45.269Z,99675.68
2022-10-08T18:49:47.168Z,99684.71
2022-10-08T18:52:49.400Z,99691.23
2022-10-08T18:55:51.874Z,99689.67
2022-10-08T18:58:53.847Z,99689.10
2022-10-08T19:01:59.084Z,99686.23
2022-10-08T19:05:01.340Z,99686.75
2022-10-08T19:08:04.426Z,99689.80
2022-10-08T19:11:14.980Z,99698.95
2022-10-08T19:14:18.821Z,99704.36
2022-10-08T19:17:20.747Z,99705.41
2022-10-08T19:20:22.493Z,99709.35
2022-10-08T19:23:24.413Z,99717.15
2022-10-08T19:26:28.258Z,99720.89
2022-10-08T19:29:33.475Z,99728.20
2022-10-08T19:32:35.281Z,99732.29
2022-10-08T19:35:37.023Z,99739.95
2022-10-08T19:38:38.803Z,99741.11
2022-10-08T19:41:41.349Z,99746.41
2022-10-08T19:44:43.183Z,99744.63
2022-10-08T19:47:44.955Z,99745.06
2022-10-08T19:50:46.726Z,99754.63
2022-10-08T19:53:49.141Z,99761.32
2022-10-08T19:56:50.998Z,99765.88
2022-10-08T19:59:52.757Z,99770.30
2022-10-08T20:02:54.478Z,99774.86
2022-10-08T20:05:56.752Z,99775.75
2022-10-08T20:09:01.889Z,99775.87
2022-10-08T20:12:03.759Z,99782.61
2022-10-08T20:15:08.304Z,99781.83
2022-10-08T20:18:11.440Z,99787.39
2022-10-08T20:21:13.438Z,99790.11
2022-10-08T20:24:16.413Z,99789.65
2022-10-08T20:27:18.315Z,99791.17
2022-10-08T20:30:20.110Z,99794.73
2022-10-08T20:33:21.833Z,99797.59
2022-10-08T20:36:24.685Z,99802.67
2022-10-08T20:39:26.451Z,99804.42
2022-10-08T20:42:29.092Z,99809.60
2022-10-08T20:45:30.962Z,99813.91
2022-10-08T20:48:34.275Z,99817.15
2022-10-08T20:51:38.986Z,99826.94
2022-10-08T20:54:40.742Z,99834.14
2022-10-08T20:57:42.584Z,99835.69
2022-10-08T21:00:47.883Z,99832.02
2022-10-08T21:03:51.184Z,99834.42
2022-10-08T21:06:53.338Z,99830.70
2022-10-08T21:09:55.301Z,99838.33
2022-10-08T21:12:57.150Z,99845.09
2022-10-08T21:16:10.421Z,99844.98
2022-10-08T21:19:15.074Z,99840.10
2022-10-08T21:22:17.040Z,99834.15
2022-10-08T21:25:18.893Z,99842.57
2022-10-08T21:28:20.984Z,99844.23
2022-10-08T21:31:23.328Z,99848.06
2022-10-08T21:34:25.579Z,99848.15
2022-10-08T21:37:27.298Z,99843.73
2022-10-08T21:40:29.130Z,99847.60
2022-10-08T21:43:31.395Z,99851.95
2022-10-08T21:46:35.780Z,99850.85
2022-10-08T21:49:37.554Z,99848.71
2022-10-08T21:52:39.490Z,99849.02
2022-10-08T21:55:41.160Z,99847.03
2022-10-08T21:58:48.104Z,99851.80
2022-10-08T22:01:51.666Z,99846.40
2022-10-08T22:04:53.637Z,99848.41
2022-10-08T22:07:55.453Z,99846.55
2022-10-08T22:10:57.576Z,99844.13
2022-10-08T22:13:59.397Z,99850.92
2022-10-08T22:17:01.209Z,99856.00
2022-10-08T22:20:03.595Z,99857.91
2022-10-08T22:23:05.471Z,99863.60
2022-10-08T22:26:10.560Z,99869.44
2022-10-08T22:29:12.526Z,99876.08
2022-10-08T22:32:14.365Z,99879.36
2022-10-08T22:35:16.091Z,99884.82
2022-10-08T22:38:17.974Z,99883.42
2022-10-08T22:41:33.406Z,99881.27
2022-10-08T22:44:35.181Z,99888.12
2022-10-08T22:47:36.876Z,99888.25
2022-10-08T22:50:39.386Z,99883.57
2022-10-08T22:53:41.971Z,99878.46
2022-10-08T22:56:43.722Z,99882.25
2022-10-08T22:59:45.752Z,99888.09
2022-10-08T23:02:47.791Z,99897.04
2022-10-08T23:06:27.611Z,99904.89
2022-10-08T23:09:29.735Z,99911.48
2022-10-08T23:12:31.479Z,99912.02
2022-10-08T23:15:33.226Z,99915.67
2022-10-08T23:18:39.906Z,99913.86
2022-10-08T23:21:44.332Z,99915.13
2022-10-08T23:24:46.598Z,99914.70
2022-10-08T23:27:48.515Z,99906.59
2022-10-08T23:30:53.520Z,99911.30
2022-10-08T23:33:56.095Z,99911.55
2022-10-08T23:36:58.133Z,99912.70
2022-10-08T23:40:00.131Z,99918.95
2022-10-08T23:43:02.188Z,99924.87
2022-10-08T23:46:05.942Z,99927.89
2022-10-08T23:49:07.981Z,99936.77
2022-10-08T23:52:09.740Z,99942.96
2022-10-08T23:55:11.899Z,99944.29
2022-10-08T23:58:14.420Z,99953.24
